Time;durP1;ratioP1;P1;durP2;ratioP2;P2;SDS_P1;SDS_P2;PMS_P1;PMS_P2;Temp;Humidity;BMP_temperature;BMP_pressure;BME280_temperature;BME280_humidity;BME280_pressure;Samples;Min_cycle;Max_cycle;Signal;HPM_P1;HPM_P2
2023/05/04 00:00:14;;;;;;;7.40;3.25;;;6.80;99.90;;;;;;4247501;27;20066;-83
2023/05/04 00:02:20;;;;;;;6.50;3.10;;;6.80;99.90;;;;;;4234334;28;20051;-84
2023/05/04 00:04:21;;;;;;;7.50;2.47;;;6.80;99.90;;;;;;4234534;28;20126;-84
2023/05/04 00:06:23;;;;;;;6.47;2.90;;;6.70;99.90;;;;;;4217853;28;20037;-84
2023/05/04 00:08:23;;;;;;;11.70;3.72;;;6.70;99.90;;;;;;4234624;28;20047;-83
2023/05/04 00:10:26;;;;;;;6.75;2.70;;;6.70;99.90;;;;;;4252602;27;20058;-83
2023/05/04 00:12:28;;;;;;;6.85;3.33;;;6.70;99.90;;;;;;4233671;28;20131;-84
2023/05/04 00:14:31;;;;;;;8.02;3.10;;;6.70;99.90;;;;;;4235025;28;20051;-83
2023/05/04 00:16:34;;;;;;;7.45;3.17;;;6.70;99.90;;;;;;4215648;28;20127;-84
2023/05/04 00:18:35;;;;;;;8.75;3.42;;;7.10;99.90;;;;;;4238260;27;20084;-83
2023/05/04 00:20:36;;;;;;;7.65;3.40;;;6.70;99.90;;;;;;4235692;28;20046;-83
2023/05/04 00:22:38;;;;;;;12.95;4.38;;;6.60;99.90;;;;;;4234386;28;20395;-84
2023/05/04 00:24:39;;;;;;;6.43;3.40;;;6.60;99.90;;;;;;4217607;28;20095;-83
2023/05/04 00:26:40;;;;;;;7.68;3.38;;;7.20;99.90;;;;;;4234569;28;20418;-83
2023/05/04 00:28:41;;;;;;;8.95;3.40;;;6.60;99.90;;;;;;4199182;28;20056;-83
2023/05/04 00:30:43;;;;;;;7.82;2.80;;;6.60;99.90;;;;;;4199021;28;20095;-84
2023/05/04 00:32:43;;;;;;;7.82;3.13;;;6.60;99.90;;;;;;4199139;28;20060;-83
2023/05/04 00:34:44;;;;;;;7.32;3.28;;;7.20;99.90;;;;;;4214723;28;20052;-84
2023/05/04 00:36:46;;;;;;;6.97;3.35;;;6.70;99.90;;;;;;4203238;28;20523;-84
2023/05/04 00:38:52;;;;;;;5.60;3.05;;;6.50;99.90;;;;;;4233871;28;20114;-83
2023/05/04 00:40:53;;;;;;;7.47;3.15;;;6.50;99.90;;;;;;4233456;28;20141;-85
2023/05/04 00:42:54;;;;;;;5.43;2.88;;;6.50;99.90;;;;;;4233882;28;20044;-83
2023/05/04 00:44:54;;;;;;;8.27;3.42;;;6.60;99.90;;;;;;4215280;28;20518;-83
2023/05/04 00:46:56;;;;;;;9.35;3.03;;;6.40;99.90;;;;;;4214669;28;20162;-83
2023/05/04 00:48:58;;;;;;;5.75;2.85;;;6.40;99.90;;;;;;4198383;28;20048;-84
2023/05/04 00:51:01;;;;;;;6.10;3.25;;;6.40;99.90;;;;;;4198733;28;20049;-83
2023/05/04 00:53:11;;;;;;;6.30;2.83;;;6.40;99.90;;;;;;4198928;28;20063;-83
2023/05/04 00:55:13;;;;;;;10.25;3.30;;;6.40;99.90;;;;;;4237095;27;20122;-83
2023/05/04 00:57:15;;;;;;;6.15;3.25;;;6.40;99.90;;;;;;4215443;28;20424;-84
2023/05/04 00:59:17;;;;;;;8.13;3.60;;;6.30;99.90;;;;;;4233682;28;20051;-83
2023/05/04 01:01:18;;;;;;;9.88;3.75;;;6.40;99.90;;;;;;4233035;28;20052;-83
2023/05/04 01:03:19;;;;;;;10.85;3.97;;;6.30;99.90;;;;;;4198447;28;20048;-83
2023/05/04 01:05:25;;;;;;;9.13;3.55;;;6.20;99.90;;;;;;4224418;28;20043;-83
2023/05/04 01:07:48;;;;;;;8.52;3.50;;;6.20;99.90;;;;;;4234099;28;20054;-85
2023/05/04 01:09:58;;;;;;;7.40;3.53;;;6.20;99.90;;;;;;4229136;28;20055;-84
2023/05/04 01:12:07;;;;;;;7.00;3.30;;;6.20;99.90;;;;;;4241613;27;20039;-84
2023/05/04 01:14:09;;;;;;;9.10;3.75;;;6.20;99.90;;;;;;4251704;27;20051;-84
2023/05/04 01:16:12;;;;;;;7.07;3.13;;;6.10;99.90;;;;;;4250923;27;20040;-84
2023/05/04 01:18:13;;;;;;;4.95;3.10;;;6.10;99.90;;;;;;4231936;28;20117;-83
2023/05/04 01:20:14;;;;;;;8.88;3.53;;;6.10;99.90;;;;;;4233809;28;20051;-84
2023/05/04 01:22:16;;;;;;;9.88;3.72;;;6.30;99.90;;;;;;4250352;27;20043;-84
2023/05/04 01:24:18;;;;;;;5.95;3.13;;;6.10;99.90;;;;;;4251609;27;20078;-83
2023/05/04 01:26:27;;;;;;;7.18;3.72;;;6.00;99.90;;;;;;4250863;27;20088;-84
2023/05/04 01:28:51;;;;;;;9.45;3.92;;;6.50;99.90;;;;;;4249762;27;20547;-84
2023/05/04 01:30:58;;;;;;;12.13;4.70;;;6.00;99.90;;;;;;4228083;28;20047;-84
2023/05/04 01:33:02;;;;;;;8.50;3.45;;;6.00;99.90;;;;;;4233250;28;20496;-84
2023/05/04 01:35:03;;;;;;;9.63;3.10;;;6.00;99.90;;;;;;4232412;28;20096;-85
2023/05/04 01:37:04;;;;;;;13.82;4.03;;;6.00;99.90;;;;;;4232970;28;20059;-84
2023/05/04 01:39:07;;;;;;;7.85;4.15;;;6.70;99.90;;;;;;4231921;28;20085;-84
2023/05/04 01:41:08;;;;;;;9.68;3.92;;;6.00;99.90;;;;;;4250860;27;20039;-85
2023/05/04 01:43:09;;;;;;;8.95;3.53;;;5.90;99.90;;;;;;4250783;27;20043;-84
2023/05/04 01:45:10;;;;;;;8.05;3.50;;;5.90;99.90;;;;;;4231802;28;20543;-84
2023/05/04 01:47:11;;;;;;;8.75;3.20;;;5.90;99.90;;;;;;4245394;27;20475;-84
2023/05/04 01:49:12;;;;;;;9.75;3.28;;;6.60;99.90;;;;;;4249646;27;20095;-84
2023/05/04 01:51:14;;;;;;;13.25;3.50;;;5.90;99.90;;;;;;4231151;28;20047;-83
2023/05/04 01:53:14;;;;;;;8.88;3.25;;;5.90;99.90;;;;;;4230348;28;20565;-84
2023/05/04 01:55:16;;;;;;;12.30;3.30;;;5.90;99.90;;;;;;4214066;28;20048;-84
2023/05/04 01:57:18;;;;;;;8.30;3.35;;;5.90;99.90;;;;;;4230462;28;20141;-84
2023/05/04 01:59:18;;;;;;;8.10;3.78;;;5.90;99.90;;;;;;4249084;27;20130;-84
2023/05/04 02:01:20;;;;;;;7.03;3.55;;;6.70;99.90;;;;;;4249407;27;20070;-84
2023/05/04 02:03:21;;;;;;;9.50;4.35;;;5.90;99.90;;;;;;4224976;28;20593;-84
2023/05/04 02:05:21;;;;;;;10.68;3.70;;;5.90;99.90;;;;;;4231820;28;20051;-84
2023/05/04 02:07:22;;;;;;;9.02;4.15;;;5.90;99.90;;;;;;4231405;28;20069;-84
2023/05/04 02:09:24;;;;;;;8.30;4.05;;;5.90;99.90;;;;;;4249876;27;20058;-84
2023/05/04 02:11:25;;;;;;;6.68;3.20;;;5.80;99.90;;;;;;4230865;28;20050;-84
2023/05/04 02:13:27;;;;;;;11.80;4.07;;;5.90;99.90;;;;;;4231345;28;20048;-84
2023/05/04 02:15:28;;;;;;;7.63;3.50;;;5.90;99.90;;;;;;4230905;28;20043;-84
2023/05/04 02:17:29;;;;;;;10.07;3.38;;;5.80;99.90;;;;;;4249457;27;20043;-84
2023/05/04 02:19:31;;;;;;;8.70;3.85;;;5.80;99.90;;;;;;4232925;28;20083;-84
2023/05/04 02:21:32;;;;;;;9.27;3.53;;;5.90;99.90;;;;;;4246063;27;20039;-84
2023/05/04 02:23:33;;;;;;;9.23;3.55;;;5.90;99.90;;;;;;4238712;27;20063;-84
2023/05/04 02:25:39;;;;;;;11.45;3.50;;;6.10;99.90;;;;;;4248372;27;20051;-84
2023/05/04 02:27:42;;;;;;;7.25;3.65;;;5.90;99.90;;;;;;4249645;27;20070;-84
2023/05/04 02:29:45;;;;;;;10.77;3.42;;;5.80;99.90;;;;;;4231105;28;20059;-84
2023/05/04 02:31:45;;;;;;;11.25;3.90;;;5.80;99.90;;;;;;4230698;28;20073;-84
2023/05/04 02:33:48;;;;;;;7.03;3.08;;;5.80;99.90;;;;;;4249297;27;20039;-84
2023/05/04 02:35:49;;;;;;;8.30;3.90;;;6.30;99.90;;;;;;4248864;27;20043;-84
2023/05/04 02:37:51;;;;;;;7.40;3.15;;;5.80;99.90;;;;;;4249405;27;20095;-85
2023/05/04 02:39:51;;;;;;;7.97;3.85;;;5.80;99.90;;;;;;4228713;28;20047;-84
2023/05/04 02:41:55;;;;;;;11.95;3.33;;;5.80;99.90;;;;;;4248670;27;20125;-84
2023/05/04 02:43:56;;;;;;;9.75;3.88;;;5.80;99.90;;;;;;4249248;27;20047;-84
2023/05/04 02:45:56;;;;;;;7.40;2.95;;;5.70;99.90;;;;;;4230441;28;20511;-83
2023/05/04 02:47:57;;;;;;;8.70;3.47;;;5.80;99.90;;;;;;4231410;28;20058;-81
2023/05/04 02:49:58;;;;;;;12.43;3.90;;;5.80;99.90;;;;;;4248579;28;20441;-83
2023/05/04 02:51:59;;;;;;;8.07;3.28;;;5.70;99.90;;;;;;4249903;28;20050;-82
2023/05/04 02:53:59;;;;;;;10.32;3.70;;;5.70;99.90;;;;;;4213758;28;20055;-83
2023/05/04 02:56:01;;;;;;;10.85;3.67;;;5.70;99.90;;;;;;4249315;28;20391;-84
2023/05/04 02:58:02;;;;;;;8.18;3.65;;;6.10;99.90;;;;;;4218837;28;20435;-84
2023/05/04 03:00:05;;;;;;;8.88;4.93;;;5.70;99.90;;;;;;4211265;28;20051;-83
2023/05/04 03:02:06;;;;;;;6.55;3.50;;;5.80;99.90;;;;;;4239085;28;20040;-83
2023/05/04 03:04:07;;;;;;;11.25;3.55;;;5.80;99.90;;;;;;4231359;28;20505;-83
2023/05/04 03:06:11;;;;;;;11.15;4.28;;;6.10;99.90;;;;;;4239000;28;20409;-83
2023/05/04 03:08:14;;;;;;;6.72;3.60;;;6.20;99.90;;;;;;4213231;28;20071;-83
2023/05/04 03:10:16;;;;;;;10.18;4.00;;;5.70;99.90;;;;;;4234149;28;20054;-82
2023/05/04 03:12:18;;;;;;;17.00;5.43;;;5.70;99.90;;;;;;4235214;28;20439;-82
2023/05/04 03:14:19;;;;;;;6.25;3.85;;;5.70;99.90;;;;;;4216999;28;20077;-82
2023/05/04 03:16:20;;;;;;;6.35;3.90;;;5.70;99.90;;;;;;4235116;28;20074;-82
2023/05/04 03:18:21;;;;;;;5.38;3.20;;;6.30;99.90;;;;;;4232738;28;20443;-82
2023/05/04 03:20:23;;;;;;;11.38;4.10;;;5.70;99.90;;;;;;4217079;28;20052;-82
2023/05/04 03:22:24;;;;;;;8.60;3.95;;;6.20;99.90;;;;;;4251454;27;20041;-84
2023/05/04 03:24:25;;;;;;;7.95;3.47;;;5.70;99.90;;;;;;4251793;27;20059;-83
2023/05/04 03:26:26;;;;;;;11.30;4.10;;;5.70;99.90;;;;;;4251927;27;20071;-83
2023/05/04 03:28:27;;;;;;;11.63;4.43;;;5.70;99.90;;;;;;4251881;27;20042;-83
2023/05/04 03:30:29;;;;;;;8.93;3.90;;;5.70;99.90;;;;;;4253053;27;20440;-82
2023/05/04 03:32:30;;;;;;;8.63;3.92;;;5.70;99.90;;;;;;4243257;27;20158;-82
2023/05/04 03:34:31;;;;;;;12.57;4.75;;;5.70;99.90;;;;;;4252684;27;20475;-84
2023/05/04 03:36:32;;;;;;;8.35;3.47;;;5.70;99.90;;;;;;4234226;28;20130;-84
2023/05/04 03:38:33;;;;;;;6.40;3.70;;;5.70;99.90;;;;;;4235461;28;20073;-83
2023/05/04 03:40:34;;;;;;;10.00;4.53;;;5.80;99.90;;;;;;4252878;27;20071;-84
2023/05/04 03:42:36;;;;;;;7.50;4.00;;;6.00;99.90;;;;;;4234647;28;20051;-84
2023/05/04 03:44:37;;;;;;;7.15;4.68;;;5.70;99.90;;;;;;4252888;27;20479;-83
2023/05/04 03:46:39;;;;;;;12.75;4.57;;;5.70;99.90;;;;;;4233997;28;20118;-83
2023/05/04 03:48:40;;;;;;;8.18;4.30;;;5.70;99.90;;;;;;4253140;27;20087;-83
2023/05/04 03:50:42;;;;;;;11.00;4.45;;;5.70;99.90;;;;;;4250928;27;20043;-83
2023/05/04 03:52:43;;;;;;;8.55;4.10;;;5.70;99.90;;;;;;4233240;28;20054;-83
2023/05/04 03:54:44;;;;;;;8.85;3.83;;;5.70;99.90;;;;;;4252760;27;20043;-83
2023/05/04 03:56:45;;;;;;;9.40;4.00;;;5.70;99.90;;;;;;4234256;28;20626;-83
2023/05/04 03:58:49;;;;;;;8.25;4.20;;;5.80;99.90;;;;;;4252160;27;20048;-83
2023/05/04 04:00:51;;;;;;;10.98;4.47;;;6.50;99.90;;;;;;4251951;27;20074;-83
2023/05/04 04:02:51;;;;;;;12.85;5.15;;;5.80;99.90;;;;;;4234885;28;20088;-83
2023/05/04 04:04:53;;;;;;;11.18;4.45;;;5.80;99.90;;;;;;4251604;27;20251;-83
2023/05/04 04:06:55;;;;;;;8.15;4.20;;;6.40;99.90;;;;;;4234602;28;20043;-83
2023/05/04 04:08:55;;;;;;;11.02;4.90;;;5.80;99.90;;;;;;4249832;27;20039;-83
2023/05/04 04:10:57;;;;;;;11.10;3.95;;;5.80;99.90;;;;;;4251325;27;20050;-83
2023/05/04 04:12:57;;;;;;;8.98;4.32;;;5.90;99.90;;;;;;4235278;28;20095;-83
2023/05/04 04:14:58;;;;;;;9.52;4.43;;;5.80;99.90;;;;;;4235131;28;20461;-84
2023/05/04 04:16:59;;;;;;;11.48;4.13;;;6.40;99.90;;;;;;4235670;28;20119;-83
2023/05/04 04:19:00;;;;;;;11.13;5.00;;;5.90;99.90;;;;;;4218015;28;20092;-84
2023/05/04 04:21:02;;;;;;;10.02;4.57;;;5.80;99.90;;;;;;4237431;28;20039;-83
2023/05/04 04:23:03;;;;;;;7.72;4.00;;;6.10;99.90;;;;;;4262291;27;20042;-82
2023/05/04 04:25:04;;;;;;;9.80;4.13;;;6.40;99.90;;;;;;4266250;27;20050;-83
2023/05/04 04:27:05;;;;;;;7.47;4.40;;;5.80;99.90;;;;;;4217906;28;20063;-82
2023/05/04 04:29:07;;;;;;;10.70;4.00;;;5.80;99.90;;;;;;4246425;28;20043;-83
2023/05/04 04:31:09;;;;;;;11.85;4.50;;;5.80;99.90;;;;;;4202307;28;20032;-83
2023/05/04 04:33:10;;;;;;;12.98;4.90;;;5.90;99.90;;;;;;4199575;28;20044;-82
2023/05/04 04:35:12;;;;;;;11.20;5.00;;;6.70;99.90;;;;;;4216951;28;20598;-83
2023/05/04 04:37:14;;;;;;;10.68;4.97;;;5.90;99.90;;;;;;4216503;28;20439;-83
2023/05/04 04:39:15;;;;;;;8.50;4.10;;;6.00;99.90;;;;;;4235859;28;20048;-83
2023/05/04 04:41:17;;;;;;;12.35;4.80;;;5.90;99.90;;;;;;4223068;28;20101;-83
2023/05/04 04:43:18;;;;;;;10.50;4.35;;;5.90;99.90;;;;;;4227460;28;20042;-83
2023/05/04 04:45:20;;;;;;;12.82;4.65;;;5.90;99.90;;;;;;4234663;28;20046;-84
2023/05/04 04:47:20;;;;;;;8.93;4.15;;;6.10;99.90;;;;;;4251564;27;20078;-83
2023/05/04 04:49:22;;;;;;;8.00;4.10;;;5.90;99.90;;;;;;4252941;27;20464;-83
2023/05/04 04:51:23;;;;;;;9.65;4.43;;;6.00;99.90;;;;;;4234156;28;20047;-84
2023/05/04 04:53:29;;;;;;;11.18;4.95;;;6.60;99.90;;;;;;4235427;28;20066;-84
2023/05/04 04:55:31;;;;;;;11.13;4.15;;;6.00;99.90;;;;;;4233742;28;20039;-84
2023/05/04 04:57:32;;;;;;;11.05;4.72;;;6.10;99.90;;;;;;4252273;27;20484;-84
2023/05/04 04:59:34;;;;;;;11.68;4.35;;;6.40;99.90;;;;;;4217587;28;20092;-84
2023/05/04 05:01:36;;;;;;;11.18;4.40;;;6.10;99.90;;;;;;4247147;27;20049;-84
2023/05/04 05:03:36;;;;;;;9.93;4.95;;;6.40;99.90;;;;;;4234625;28;20051;-84
2023/05/04 05:05:38;;;;;;;12.32;4.47;;;6.20;99.90;;;;;;4233427;28;20093;-84
2023/05/04 05:07:40;;;;;;;12.13;4.22;;;6.30;99.90;;;;;;4252005;27;20080;-84
2023/05/04 05:09:41;;;;;;;11.40;4.57;;;6.30;99.90;;;;;;4217229;28;20056;-83
2023/05/04 05:11:44;;;;;;;10.45;4.82;;;6.40;99.90;;;;;;4217062;28;20048;-84
2023/05/04 05:13:49;;;;;;;15.07;4.18;;;6.90;99.90;;;;;;4252307;27;20121;-83
2023/05/04 05:15:51;;;;;;;9.75;4.38;;;6.40;99.90;;;;;;4250328;27;20035;-83
2023/05/04 05:17:52;;;;;;;13.18;5.43;;;6.50;99.90;;;;;;4248677;27;20047;-83
2023/05/04 05:19:54;;;;;;;10.10;4.28;;;6.50;99.90;;;;;;4237477;27;20132;-84
2023/05/04 05:21:55;;;;;;;8.52;3.67;;;7.10;99.90;;;;;;4232939;28;20039;-84
2023/05/04 05:23:56;;;;;;;11.35;4.82;;;6.60;99.90;;;;;;4233298;28;20114;-84
2023/05/04 05:25:58;;;;;;;12.68;5.15;;;6.70;99.90;;;;;;4215115;28;20055;-84
2023/05/04 05:27:58;;;;;;;11.90;5.10;;;7.30;99.90;;;;;;4198490;28;20404;-84
2023/05/04 05:30:04;;;;;;;9.45;4.80;;;6.70;99.90;;;;;;4232485;28;20059;-84
2023/05/04 05:32:05;;;;;;;11.50;4.43;;;6.80;99.90;;;;;;4232058;28;20047;-84
2023/05/04 05:34:07;;;;;;;15.57;5.15;;;6.80;99.90;;;;;;4215736;28;20408;-84
2023/05/04 05:36:08;;;;;;;10.18;4.50;;;7.60;99.90;;;;;;4232001;28;20035;-84
2023/05/04 05:38:09;;;;;;;11.55;5.00;;;6.90;99.90;;;;;;4232899;28;20077;-84
2023/05/04 05:40:11;;;;;;;13.70;4.75;;;6.90;99.90;;;;;;4232066;28;20138;-84
2023/05/04 05:42:11;;;;;;;14.73;4.10;;;7.00;99.90;;;;;;4250066;27;20043;-84
2023/05/04 05:44:13;;;;;;;10.43;3.80;;;7.00;99.90;;;;;;4249596;27;20127;-84
2023/05/04 05:46:14;;;;;;;10.23;4.47;;;7.00;99.90;;;;;;4230372;28;20155;-83
2023/05/04 05:48:15;;;;;;;10.13;5.22;;;7.10;99.90;;;;;;4221211;28;20583;-83
2023/05/04 05:50:17;;;;;;;13.07;5.07;;;7.30;99.90;;;;;;4214494;28;20047;-83
2023/05/04 05:52:19;;;;;;;16.00;4.75;;;7.20;99.90;;;;;;4250526;27;20104;-83
2023/05/04 05:54:23;;;;;;;11.43;4.53;;;7.20;99.90;;;;;;4250102;27;20040;-84
2023/05/04 05:56:25;;;;;;;8.55;3.92;;;7.30;99.90;;;;;;4250582;27;20086;-84
2023/05/04 05:58:25;;;;;;;10.43;4.40;;;7.40;99.90;;;;;;4231463;28;20048;-84
2023/05/04 06:00:27;;;;;;;12.15;4.45;;;7.60;99.90;;;;;;4250069;27;20118;-84
2023/05/04 06:02:28;;;;;;;13.95;4.68;;;7.50;99.90;;;;;;4232047;28;20150;-84
2023/05/04 06:04:29;;;;;;;11.55;4.30;;;7.50;99.90;;;;;;4249873;27;20403;-84
2023/05/04 06:06:30;;;;;;;20.30;4.82;;;7.70;99.90;;;;;;4228511;28;20044;-83
2023/05/04 06:08:31;;;;;;;11.13;4.10;;;7.70;99.90;;;;;;4198251;28;20048;-83
2023/05/04 06:10:32;;;;;;;11.82;4.45;;;7.70;99.90;;;;;;4232931;28;20376;-84
2023/05/04 06:12:34;;;;;;;7.57;3.83;;;7.90;99.90;;;;;;4214316;28;20054;-83
2023/05/04 06:14:35;;;;;;;14.05;4.55;;;7.90;99.90;;;;;;4233230;28;20051;-83
2023/05/04 06:16:37;;;;;;;10.77;3.95;;;7.90;99.90;;;;;;4232573;28;20039;-83
2023/05/04 06:18:37;;;;;;;12.35;4.45;;;8.00;99.90;;;;;;4232239;28;20063;-83
2023/05/04 06:20:38;;;;;;;10.02;4.30;;;8.10;99.90;;;;;;4232734;28;20040;-84
2023/05/04 06:22:40;;;;;;;10.70;4.57;;;8.20;99.90;;;;;;4214780;28;20080;-84
2023/05/04 06:24:41;;;;;;;12.20;4.45;;;8.30;99.90;;;;;;4202058;28;20127;-85
2023/05/04 06:26:42;;;;;;;11.90;4.25;;;8.30;99.90;;;;;;4231855;28;20051;-85
2023/05/04 06:28:43;;;;;;;9.77;4.15;;;8.40;99.90;;;;;;4214245;28;20524;-86
2023/05/04 06:30:44;;;;;;;7.82;3.88;;;8.50;99.90;;;;;;4214254;28;20048;-85
2023/05/04 06:32:45;;;;;;;10.50;3.65;;;8.60;99.90;;;;;;4231726;28;20044;-85
2023/05/04 06:34:47;;;;;;;11.77;3.83;;;8.60;99.90;;;;;;4232326;28;20044;-85
2023/05/04 06:36:48;;;;;;;13.75;4.32;;;8.70;99.90;;;;;;4231864;28;20052;-85
2023/05/04 06:38:48;;;;;;;10.75;4.05;;;8.80;99.90;;;;;;4232653;28;20093;-85
2023/05/04 06:40:49;;;;;;;11.38;4.15;;;8.90;99.90;;;;;;4213442;28;20123;-85
2023/05/04 06:42:49;;;;;;;10.07;3.80;;;9.00;99.90;;;;;;4223819;28;20054;-85
2023/05/04 06:44:51;;;;;;;14.45;5.15;;;9.10;99.90;;;;;;4248231;27;20096;-85
2023/05/04 06:46:52;;;;;;;9.60;5.28;;;9.20;99.90;;;;;;4248717;27;20047;-84
2023/05/04 06:48:53;;;;;;;11.07;4.18;;;9.20;99.90;;;;;;4231116;28;20148;-84
2023/05/04 06:50:54;;;;;;;11.55;4.45;;;9.20;99.90;;;;;;4230301;28;20047;-85
2023/05/04 06:53:09;;;;;;;9.52;3.92;;;9.30;99.90;;;;;;4231225;28;20048;-85
2023/05/04 06:55:10;;;;;;;14.70;4.68;;;9.80;99.90;;;;;;4248468;28;20047;-85
2023/05/04 06:57:10;;;;;;;9.68;4.20;;;9.50;99.90;;;;;;4214282;28;20056;-84
2023/05/04 06:59:12;;;;;;;8.20;4.18;;;9.60;99.90;;;;;;4230222;28;20040;-84
2023/05/04 07:01:12;;;;;;;10.18;4.10;;;9.70;99.90;;;;;;4242580;27;20051;-83
2023/05/04 07:03:13;;;;;;;11.60;4.03;;;9.80;99.90;;;;;;4231052;28;20090;-85
2023/05/04 07:05:15;;;;;;;9.38;3.72;;;9.80;99.90;;;;;;4213159;28;20044;-84
2023/05/04 07:07:16;;;;;;;16.52;4.78;;;10.10;99.90;;;;;;4248746;28;20058;-84
2023/05/04 07:09:19;;;;;;;11.65;4.20;;;10.00;99.90;;;;;;4230426;28;20055;-86
2023/05/04 07:11:20;;;;;;;13.13;5.07;;;10.00;99.90;;;;;;4230199;28;20043;-85
2023/05/04 07:13:23;;;;;;;12.07;4.15;;;10.10;99.90;;;;;;4231074;28;20047;-85
2023/05/04 07:15:24;;;;;;;13.38;4.45;;;10.20;99.90;;;;;;4222354;28;20048;-85
2023/05/04 07:17:25;;;;;;;9.48;5.72;;;10.40;99.90;;;;;;4229931;28;20073;-85
2023/05/04 07:19:26;;;;;;;13.00;3.92;;;;;;;;;;4214345;28;20051;-85
2023/05/04 07:21:28;;;;;;;13.90;4.38;;;;;;;;;;4214958;28;20521;-86
2023/05/04 07:23:28;;;;;;;19.52;5.60;;;10.50;99.90;;;;;;4215100;28;20056;-87
2023/05/04 07:25:30;;;;;;;11.90;4.32;;;;;;;;;;4250425;28;20139;-86
2023/05/04 07:27:34;;;;;;;10.07;3.40;;;;;;;;;;4232989;28;20532;-86
2023/05/04 07:29:35;;;;;;;7.47;3.63;;;;;;;;;;4214883;28;20044;-87
2023/05/04 07:31:37;;;;;;;9.30;3.35;;;;;;;;;;4215023;28;20080;-87
2023/05/04 07:33:38;;;;;;;10.20;3.58;;;;;;;;;;4231812;28;20151;-87
2023/05/04 07:35:40;;;;;;;10.05;3.60;;;10.90;99.90;;;;;;4232731;28;20075;-86
2023/05/04 07:37:41;;;;;;;11.07;3.67;;;;;;;;;;4214207;28;20511;-84
2023/05/04 07:39:42;;;;;;;11.32;3.30;;;;;;;;;;4230824;28;20130;-84
2023/05/04 07:41:44;;;;;;;10.48;3.38;;;11.70;99.90;;;;;;4230710;28;20052;-84
2023/05/04 07:43:45;;;;;;;8.18;3.13;;;12.00;99.90;;;;;;4229268;28;20130;-84
2023/05/04 07:45:46;;;;;;;8.80;3.35;;;12.00;99.90;;;;;;4227747;28;20052;-83
2023/05/04 07:47:47;;;;;;;17.60;3.30;;;12.10;99.90;;;;;;4230773;28;20479;-83
2023/05/04 07:49:48;;;;;;;6.30;3.28;;;12.10;99.90;;;;;;4213306;28;20048;-84
2023/05/04 07:51:48;;;;;;;6.85;3.58;;;12.10;99.90;;;;;;4234218;28;20039;-84
2023/05/04 07:53:49;;;;;;;7.28;3.15;;;12.10;99.90;;;;;;4213388;28;20051;-84
2023/05/04 07:55:49;;;;;;;7.10;3.70;;;12.10;99.90;;;;;;4215139;28;20048;-84
2023/05/04 07:57:50;;;;;;;10.77;3.75;;;12.20;99.90;;;;;;4239295;27;20042;-84
2023/05/04 07:59:54;;;;;;;7.95;3.90;;;12.20;99.90;;;;;;4241395;27;20127;-83
2023/05/04 08:01:55;;;;;;;13.70;4.60;;;12.30;99.90;;;;;;4240750;27;20035;-84
2023/05/04 08:03:57;;;;;;;11.85;4.00;;;12.40;99.90;;;;;;4245817;27;20123;-86
2023/05/04 08:05:57;;;;;;;9.15;3.65;;;12.50;99.90;;;;;;4245673;27;20047;-85
2023/05/04 08:07:58;;;;;;;9.25;3.90;;;;;;;;;;4226261;28;20508;-85
2023/05/04 08:09:59;;;;;;;7.70;3.67;;;12.60;99.90;;;;;;4223815;28;20044;-85
2023/05/04 08:12:01;;;;;;;10.02;4.13;;;;;;;;;;4242970;27;20040;-85
2023/05/04 08:14:02;;;;;;;8.88;4.32;;;;;;;;;;4246538;27;20078;-85
2023/05/04 08:16:03;;;;;;;9.43;3.55;;;12.80;99.90;;;;;;4243075;27;20483;-84
2023/05/04 08:18:05;;;;;;;11.15;4.15;;;13.20;99.90;;;;;;4242339;27;20073;-85
2023/05/04 08:20:08;;;;;;;10.93;4.90;;;13.30;99.90;;;;;;4246019;27;20091;-84
2023/05/04 08:22:09;;;;;;;10.13;4.00;;;;;;;;;;4243316;27;20042;-85
2023/05/04 08:24:10;;;;;;;13.18;4.78;;;13.50;99.90;;;;;;4240340;27;20056;-84
2023/05/04 08:26:12;;;;;;;10.93;4.18;;;;;;;;;;4242115;27;20118;-84
2023/05/04 08:28:13;;;;;;;8.88;3.97;;;;;;;;;;4235065;28;20039;-84
2023/05/04 08:30:15;;;;;;;9.15;3.60;;;;;;;;;;4234849;28;20126;-84
2023/05/04 08:32:17;;;;;;;8.20;3.70;;;13.60;99.90;;;;;;4234538;28;20048;-85
2023/05/04 08:34:18;;;;;;;8.23;4.10;;;14.10;99.90;;;;;;4234891;28;20043;-84
2023/05/04 08:36:18;;;;;;;17.00;5.70;;;14.30;99.90;;;;;;4216485;28;20123;-84
2023/05/04 08:38:19;;;;;;;9.95;4.32;;;14.50;99.90;;;;;;4235266;28;20051;-84
2023/05/04 08:40:22;;;;;;;11.27;3.88;;;14.50;99.90;;;;;;4234164;28;20079;-84
2023/05/04 08:42:31;;;;;;;7.38;3.58;;;14.60;99.90;;;;;;4235330;28;20043;-85
2023/05/04 08:44:33;;;;;;;7.85;3.30;;;14.60;99.90;;;;;;4216545;28;20058;-84
2023/05/04 08:46:35;;;;;;;9.77;3.80;;;14.70;99.90;;;;;;4234716;28;20047;-86
2023/05/04 08:48:36;;;;;;;10.25;3.60;;;14.80;99.90;;;;;;4239591;27;20082;-84
2023/05/04 08:50:38;;;;;;;7.22;3.30;;;14.90;99.90;;;;;;4217195;28;20052;-87
2023/05/04 08:52:45;;;;;;;6.32;3.50;;;14.90;99.90;;;;;;4235855;28;20068;-86
2023/05/04 08:54:48;;;;;;;12.25;3.70;;;15.00;99.90;;;;;;4233573;28;20177;-84
2023/05/04 08:56:51;;;;;;;12.82;3.97;;;15.00;99.90;;;;;;4251405;27;20051;-85
2023/05/04 08:58:52;;;;;;;7.88;3.92;;;15.20;99.90;;;;;;4242892;27;20067;-84
2023/05/04 09:00:54;;;;;;;9.38;3.30;;;15.20;99.90;;;;;;4234943;28;20043;-85
2023/05/04 09:02:58;;;;;;;9.43;4.25;;;15.20;99.90;;;;;;4218372;28;20054;-85
2023/05/04 09:05:00;;;;;;;8.88;3.83;;;15.40;99.90;;;;;;4247126;27;20402;-85
2023/05/04 09:07:03;;;;;;;8.50;3.33;;;15.60;99.90;;;;;;4251314;27;20062;-85
2023/05/04 09:09:04;;;;;;;8.02;3.15;;;15.80;99.90;;;;;;4251579;27;20074;-85
2023/05/04 09:11:06;;;;;;;6.85;3.35;;;15.90;99.90;;;;;;4233411;28;20098;-85
2023/05/04 09:13:07;;;;;;;8.65;4.18;;;16.10;99.90;;;;;;4251941;27;20062;-85
2023/05/04 09:15:18;;;;;;;6.97;3.45;;;16.30;99.70;;;;;;4216433;28;20036;-84
2023/05/04 09:17:28;;;;;;;10.70;3.65;;;16.50;99.10;;;;;;4219582;28;20099;-83
2023/05/04 09:19:33;;;;;;;8.60;3.30;;;16.60;98.90;;;;;;4215874;28;20051;-84
2023/05/04 09:21:34;;;;;;;9.70;3.50;;;16.60;98.50;;;;;;4232928;28;20052;-84
2023/05/04 09:23:47;;;;;;;7.85;3.17;;;16.70;98.30;;;;;;4234111;28;20504;-83
2023/05/04 09:25:51;;;;;;;8.98;3.03;;;16.90;97.50;;;;;;4234079;28;20055;-84
2023/05/04 09:27:53;;;;;;;9.00;3.63;;;17.10;97.60;;;;;;4215804;28;20094;-84
2023/05/04 09:29:55;;;;;;;7.72;3.38;;;17.20;97.30;;;;;;4216377;28;20111;-84
2023/05/04 09:31:57;;;;;;;8.60;3.20;;;17.40;96.80;;;;;;4233609;28;20066;-84
2023/05/04 09:34:08;;;;;;;8.55;3.28;;;17.30;96.70;;;;;;4237845;27;20027;-84
2023/05/04 09:36:19;;;;;;;7.25;3.35;;;17.50;96.00;;;;;;4224154;28;20044;-83
2023/05/04 09:38:27;;;;;;;6.72;3.15;;;17.60;96.00;;;;;;4251027;27;20039;-84
2023/05/04 09:40:31;;;;;;;6.82;3.92;;;17.70;95.80;;;;;;4251775;27;20538;-83
2023/05/04 09:42:32;;;;;;;5.80;2.90;;;17.80;95.70;;;;;;4251054;27;20126;-84
2023/05/04 09:44:34;;;;;;;10.15;4.22;;;17.90;95.60;;;;;;4233031;28;20487;-85
2023/05/04 09:46:35;;;;;;;7.88;3.35;;;18.00;95.40;;;;;;4249339;27;20123;-84
2023/05/04 09:48:37;;;;;;;10.18;4.00;;;18.10;95.00;;;;;;4250237;27;20068;-85
2023/05/04 09:50:39;;;;;;;13.45;4.07;;;18.20;94.70;;;;;;4233284;28;20573;-84
2023/05/04 09:52:41;;;;;;;7.35;3.08;;;18.30;94.50;;;;;;4231580;27;20035;-84
2023/05/04 09:54:44;;;;;;;7.93;3.70;;;18.50;94.30;;;;;;4241892;27;20039;-84
2023/05/04 09:56:51;;;;;;;7.25;3.03;;;18.70;93.70;;;;;;4233542;28;20052;-83
2023/05/04 09:58:58;;;;;;;7.55;2.97;;;18.70;93.00;;;;;;4233405;28;20047;-84
2023/05/04 10:01:00;;;;;;;8.82;3.08;;;18.90;92.90;;;;;;4216517;28;20107;-84
2023/05/04 10:03:03;;;;;;;7.63;3.30;;;19.10;93.00;;;;;;4197750;28;20472;-84
2023/05/04 10:05:07;;;;;;;5.80;3.28;;;19.20;92.60;;;;;;4239966;27;20085;-84
2023/05/04 10:07:08;;;;;;;6.43;2.80;;;19.30;92.20;;;;;;4250355;27;20047;-83
2023/05/04 10:09:10;;;;;;;5.38;2.80;;;19.40;92.00;;;;;;4253607;27;20114;-84
2023/05/04 10:11:13;;;;;;;8.77;3.28;;;19.60;91.60;;;;;;4247593;27;20073;-84
2023/05/04 10:13:16;;;;;;;7.53;3.55;;;19.50;90.80;;;;;;4232058;27;20043;-84
2023/05/04 10:15:17;;;;;;;5.18;2.70;;;;;;;;;;4248688;27;20043;-84
2023/05/04 10:17:47;;;;;;;6.85;3.55;;;19.60;90.50;;;;;;4216666;28;20520;-83
2023/05/04 10:20:07;;;;;;;5.47;2.75;;;;;;;;;;4179512;28;20468;-85
2023/05/04 10:22:37;;;;;;;6.70;3.10;;;20.40;89.20;;;;;;4249552;27;20380;-85
2023/05/04 10:24:48;;;;;;;4.43;2.90;;;20.50;86.60;;;;;;4242957;27;20052;-85
2023/05/04 10:27:04;;;;;;;9.77;3.10;;;20.70;86.50;;;;;;4215393;28;20040;-85
2023/05/04 10:29:23;;;;;;;6.88;3.10;;;20.80;86.40;;;;;;4215082;28;20051;-86
2023/05/04 10:31:24;;;;;;;4.47;2.42;;;21.10;84.40;;;;;;4233731;28;20054;-86
2023/05/04 10:33:40;;;;;;;6.80;3.10;;;21.30;85.00;;;;;;4216666;28;20048;-87
2023/05/04 10:35:53;;;;;;;7.13;2.92;;;21.50;83.50;;;;;;4234197;28;20108;-87
2023/05/04 10:37:55;;;;;;;8.20;3.03;;;21.50;80.90;;;;;;4234865;28;20040;-87
2023/05/04 10:39:57;;;;;;;7.50;2.78;;;21.30;81.50;;;;;;4234595;28;20054;-86
2023/05/04 10:42:07;;;;;;;6.95;3.22;;;21.20;82.20;;;;;;4215490;28;20075;-86
2023/05/04 10:44:08;;;;;;;7.28;2.30;;;21.30;80.80;;;;;;4236618;27;20046;-86